Bahamas Express — HP5898 — position and weather

sailwx.info

Track history (hours):
 
Tides and Currents Weather Stations Pressure Air Temp Water Temp Dewpoint Dewpoint Depression Visibility Wind Speed Wind Dir Waves Ship Positions

Bahamas Express

Last reported at 2017-Oct-08 00:17 UTC. Time now 2017-Oct-20 19:38 UTC.
Position N 26°04' W 079°40'.
Warning: this ship's position is 12 days out of date.

Length 52 m; draft 2 m.

Type: Cargo ship. MMSI: 371923000.

Date/timePositionNaut miles runAvg speedWind from/ knotsBaromVisibWave heightAir tempDewpointWater temp
2017-Oct-08 00:17N 26°04' W 079°40'3 9.6
2017-Oct-08 00:00N 26°04' W 079°43'5 9.3
2017-Oct-07 23:30N 26°03' W 079°48'4 8.9
2017-Oct-07 23:00N 26°04' W 079°53'4 8.9
2017-Oct-07 22:30N 26°04' W 079°58'5 9.0
2017-Oct-07 22:00N 26°05' W 080°03'4 7.1
2017-Oct-07 21:30N 26°05' W 080°07'2 3.7
2017-Oct-07 21:00N 26°04' W 080°08'0 0.0
2017-Oct-07 20:30N 26°04' W 080°08'0 0.0
2017-Oct-07 20:00N 26°04' W 080°08'0 0.0
2017-Oct-07 19:30N 26°04' W 080°08'0 0.0
2017-Oct-07 18:57N 26°04' W 080°08'0 0.0
2017-Oct-07 18:25N 26°04' W 080°08'0 0.0
2017-Oct-07 17:59N 26°04' W 080°08'0 0.0
2017-Oct-07 17:28N 26°04' W 080°08'0 0.0
2017-Oct-07 16:59N 26°04' W 080°08'0 0.0
2017-Oct-07 16:30N 26°04' W 080°08'0 0.0
2017-Oct-07 15:53N 26°04' W 080°08'0 0.0
2017-Oct-07 15:30N 26°04' W 080°08'0 0.0
2017-Oct-07 15:00N 26°04' W 080°08'0 0.0
2017-Oct-07 14:30N 26°04' W 080°08'0 0.0
2017-Oct-07 14:00N 26°04' W 080°08'0 0.0
2017-Oct-07 13:30N 26°04' W 080°08'0 0.0
2017-Oct-07 13:00N 26°04' W 080°08'0 0.0
2017-Oct-07 12:30N 26°04' W 080°08'0 0.0
2017-Oct-07 12:00N 26°04' W 080°08'0 0.0
2017-Oct-07 11:30N 26°04' W 080°08'0 0.0
2017-Oct-07 11:00N 26°04' W 080°08'0 0.0
2017-Oct-07 10:30N 26°04' W 080°08'0 0.0
2017-Oct-07 10:00N 26°04' W 080°08'2 4.5
2017-Oct-07 09:30N 26°06' W 080°07'3 6.4
2017-Oct-07 09:00N 26°04' W 080°03'3 6.6
2017-Oct-07 08:30N 26°02' W 080°00'4 7.5
2017-Oct-07 08:00N 26°00' W 079°57'4 7.0
2017-Oct-07 07:30N 25°59' W 079°53'3 6.9
2017-Oct-07 07:00N 25°57' W 079°50'4 7.2
2017-Oct-07 06:30N 25°55' W 079°47'4 7.5
2017-Oct-07 06:00N 25°53' W 079°43'4 7.8
2017-Oct-07 05:29N 25°52' W 079°39'4 0.2
2017-Oct-06 07:16N 25°51' W 079°44'2 7.2
2017-Oct-06 06:59N 25°52' W 079°45'4 7.6
2017-Oct-06 06:30N 25°54' W 079°49'4 7.9
2017-Oct-06 06:00N 25°56' W 079°52'4 8.1
2017-Oct-06 05:30N 25°59' W 079°56'4 8.3
2017-Oct-06 05:00N 26°01' W 079°60'4 8.8
2017-Oct-06 04:30N 26°04' W 080°03'3 6.5
2017-Oct-06 04:00N 26°05' W 080°07'2 3.1
2017-Oct-06 03:30N 26°04' W 080°08'0 0.0
2017-Oct-06 03:00N 26°04' W 080°08'0 0.0
2017-Oct-06 02:30N 26°04' W 080°08'0 0.0
2017-Oct-06 02:00N 26°04' W 080°08'0 0.0
2017-Oct-06 01:30N 26°04' W 080°08'0 0.1
2017-Oct-06 01:00N 26°04' W 080°08'0 0.0
2017-Oct-06 00:30N 26°04' W 080°08'0 0.0
2017-Oct-06 00:00N 26°04' W 080°08'0 0.0
2017-Oct-05 23:30N 26°04' W 080°08'0 0.0
2017-Oct-05 23:00N 26°04' W 080°08'0 0.0
2017-Oct-05 22:30N 26°04' W 080°08'0 0.0
2017-Oct-05 22:00N 26°04' W 080°08'0 0.0
2017-Oct-05 21:30N 26°04' W 080°08'0 0.0
2017-Oct-05 21:00N 26°04' W 080°08'0 0.0
2017-Oct-05 20:30N 26°04' W 080°08'0 0.0
2017-Oct-05 20:00N 26°04' W 080°08'0 0.0
2017-Oct-05 19:30N 26°04' W 080°08'0 0.0
2017-Oct-05 19:00N 26°04' W 080°08'0 0.0
2017-Oct-05 18:30N 26°04' W 080°08'0 0.0
2017-Oct-05 18:00N 26°04' W 080°08'0 0.0
2017-Oct-05 17:30N 26°04' W 080°08'0 0.0
2017-Oct-05 17:00N 26°04' W 080°08'0 0.0
2017-Oct-05 15:30N 26°04' W 080°08'0 0.0
2017-Oct-05 15:00N 26°04' W 080°08'0 0.0
2017-Oct-05 14:30N 26°04' W 080°08'0 0.0
2017-Oct-05 14:00N 26°04' W 080°08'0 0.0
2017-Oct-05 13:30N 26°04' W 080°08'0 0.0
2017-Oct-05 13:00N 26°04' W 080°08'0 0.0
2017-Oct-05 12:30N 26°04' W 080°08'0 0.0
2017-Oct-05 12:00N 26°04' W 080°08'0 0.0
2017-Oct-05 11:30N 26°04' W 080°08'0 0.0
2017-Oct-05 11:00N 26°04' W 080°08'0 0.0
2017-Oct-05 10:30N 26°04' W 080°08'0 0.0
2017-Oct-05 10:00N 26°04' W 080°08'0 0.0
2017-Oct-05 09:30N 26°04' W 080°08'0 0.0
2017-Oct-05 09:00N 26°04' W 080°08'0 0.0
2017-Oct-05 08:30N 26°04' W 080°08'0 0.0
2017-Oct-05 08:00N 26°04' W 080°08'0 0.0
2017-Oct-05 07:30N 26°04' W 080°08'0 0.0
2017-Oct-05 07:00N 26°04' W 080°08'0 0.0
2017-Oct-05 06:30N 26°04' W 080°08'0 0.0
2017-Oct-05 06:00N 26°04' W 080°08'0 0.0
2017-Oct-05 05:30N 26°04' W 080°08'0 0.0
2017-Oct-05 05:00N 26°04' W 080°08'0 0.0
2017-Oct-05 04:30N 26°04' W 080°08'0 0.0
2017-Oct-05 04:00N 26°04' W 080°08'0 0.0
2017-Oct-05 03:30N 26°04' W 080°08'0 0.0
2017-Oct-05 03:00N 26°04' W 080°08'0 0.0
2017-Oct-05 02:30N 26°04' W 080°08'0 0.0
2017-Oct-05 02:00N 26°04' W 080°08'0 0.0
2017-Oct-05 01:30N 26°04' W 080°08'0 0.0
2017-Oct-05 01:00N 26°04' W 080°08'0 0.0
2017-Oct-05 00:30N 26°04' W 080°08'0 0.0
2017-Oct-05 00:00N 26°04' W 080°08'0 0.0
2017-Oct-04 23:30N 26°04' W 080°08'0 0.0
2017-Oct-04 23:00N 26°04' W 080°08'0 0.0
2017-Oct-04 22:30N 26°04' W 080°08'0 0.0
2017-Oct-04 22:00N 26°04' W 080°08'0 0.0
2017-Oct-04 21:30N 26°04' W 080°08'0 0.0
2017-Oct-04 21:00N 26°04' W 080°08'0 0.0
2017-Oct-04 20:30N 26°04' W 080°08'0 0.0
2017-Oct-04 20:00N 26°04' W 080°08'0 0.0
2017-Oct-04 19:30N 26°04' W 080°08'0 0.0
2017-Oct-04 19:00N 26°04' W 080°08'0 0.0
2017-Oct-04 18:30N 26°04' W 080°08'0 0.0
2017-Oct-04 18:00N 26°04' W 080°08'0 0.0
2017-Oct-04 17:30N 26°04' W 080°08'0 0.0
2017-Oct-04 17:00N 26°04' W 080°08'0 0.0
2017-Oct-04 16:30N 26°04' W 080°08'0 0.0
2017-Oct-04 16:00N 26°04' W 080°08'0 0.0
2017-Oct-04 15:30N 26°04' W 080°08'0 0.0
2017-Oct-04 15:00N 26°04' W 080°08'0 0.0
2017-Oct-04 14:30N 26°04' W 080°08'0 0.0
2017-Oct-04 14:00N 26°04' W 080°08'0 0.0
2017-Oct-04 13:30N 26°04' W 080°08'0 0.0
2017-Oct-04 13:00N 26°04' W 080°08'0 0.0
2017-Oct-04 12:30N 26°04' W 080°08'0 0.0
2017-Oct-04 12:00N 26°04' W 080°08'0 0.0
2017-Oct-04 11:30N 26°04' W 080°08'0 0.0
2017-Oct-04 11:00N 26°04' W 080°08'0 0.0
2017-Oct-04 10:30N 26°04' W 080°08'0 0.0
2017-Oct-04 10:00N 26°04' W 080°08'0 0.0
2017-Oct-04 09:30N 26°04' W 080°08'0 0.0
2017-Oct-04 09:00N 26°04' W 080°08'0 0.0
2017-Oct-04 08:30N 26°04' W 080°08'0 0.0
2017-Oct-04 08:00N 26°04' W 080°08'0 0.0
2017-Oct-04 07:29N 26°04' W 080°08'0 0.0
2017-Oct-04 07:00N 26°04' W 080°08'0 0.0
2017-Oct-04 06:30N 26°04' W 080°08'0 0.0
2017-Oct-04 06:00N 26°04' W 080°08'0 0.0
2017-Oct-04 05:30N 26°04' W 080°08'0 0.0
2017-Oct-04 05:00N 26°04' W 080°08'0 0.0
2017-Oct-04 04:30N 26°04' W 080°08'0 0.0
2017-Oct-04 04:00N 26°04' W 080°08'0 0.0
2017-Oct-04 03:30N 26°04' W 080°08'0 0.0
2017-Oct-04 03:00N 26°04' W 080°08'0 0.0
2017-Oct-04 02:30N 26°04' W 080°08'0 0.0
2017-Oct-04 02:00N 26°04' W 080°08'0 0.0
2017-Oct-04 01:30N 26°04' W 080°08'0 0.0
2017-Oct-04 01:00N 26°04' W 080°08'0 0.0
2017-Oct-04 00:30N 26°04' W 080°08'0 0.0
2017-Oct-04 00:00N 26°04' W 080°08'0 0.0
2017-Oct-03 23:30N 26°04' W 080°08'0 0.0
2017-Oct-03 23:00N 26°04' W 080°08'0 0.0
2017-Oct-03 22:30N 26°04' W 080°08'0 0.0
2017-Oct-03 22:00N 26°04' W 080°08'0 0.1
2017-Oct-03 21:30N 26°04' W 080°08'0 0.0
2017-Oct-03 21:00N 26°04' W 080°08'0 0.0
2017-Oct-03 20:30N 26°04' W 080°08'1 1.7
2017-Oct-03 20:00N 26°04' W 080°07'2 3.1
2017-Oct-03 19:30N 26°04' W 080°05'4 7.9
2017-Oct-03 19:00N 26°01' W 080°02'5 9.1
2017-Oct-03 18:31N 25°60' W 079°58'5 9.1
2017-Oct-03 18:00N 25°59' W 079°52'4 8.8
2017-Oct-03 17:30N 25°58' W 079°48'5 9.0
2017-Oct-03 16:59N 25°57' W 079°43'  
2017-Sep-30 02:00N 26°05' W 080°07'2 3.6
2017-Sep-30 01:30N 26°04' W 080°08'0 0.2
2017-Sep-30 01:00N 26°04' W 080°08'0 0.0
2017-Sep-30 00:30N 26°04' W 080°08'0 0.0
2017-Sep-30 00:00N 26°04' W 080°08'0 0.0
2017-Sep-29 23:30N 26°04' W 080°08'0 0.0
2017-Sep-29 23:00N 26°04' W 080°08'0 0.0
2017-Sep-29 22:30N 26°04' W 080°08'0 0.0
2017-Sep-29 22:00N 26°04' W 080°08'0 0.0
2017-Sep-29 21:30N 26°04' W 080°08'0 0.0
2017-Sep-29 21:00N 26°04' W 080°08'0 0.0
2017-Sep-29 20:30N 26°04' W 080°08'0 0.0
2017-Sep-29 20:00N 26°04' W 080°08'0 0.0
2017-Sep-29 19:30N 26°04' W 080°08'0 0.0
2017-Sep-29 19:00N 26°04' W 080°08'0 0.0
2017-Sep-29 18:30N 26°04' W 080°08'0 0.0
2017-Sep-29 17:00N 26°04' W 080°08'0 0.0
2017-Sep-29 16:30N 26°04' W 080°08'0 0.0
2017-Sep-29 16:00N 26°04' W 080°08'0 0.0
2017-Sep-29 15:30N 26°04' W 080°08'0 0.0
2017-Sep-29 15:00N 26°04' W 080°08'0 0.0
2017-Sep-29 14:28N 26°04' W 080°08'0 0.0
2017-Sep-29 14:00N 26°04' W 080°08'0 0.0
2017-Sep-29 13:30N 26°04' W 080°08'0 0.0
2017-Sep-29 13:00N 26°04' W 080°08'0 0.0
2017-Sep-29 12:30N 26°04' W 080°08'0 0.0
2017-Sep-29 12:00N 26°04' W 080°08'2 3.8
2017-Sep-29 11:30N 26°05' W 080°07'0 0.8
2017-Sep-29 11:00N 26°06' W 080°07'3 5.6
2017-Sep-29 10:31N 26°05' W 080°04'3 5.8
2017-Sep-29 10:00N 26°04' W 080°01'4 7.1
2017-Sep-29 09:30N 26°02' W 079°57'3 6.5
2017-Sep-29 09:00N 26°00' W 079°54'3 6.9
2017-Sep-29 08:30N 25°59' W 079°50'3 6.8
2017-Sep-29 08:00N 25°58' W 079°47'3 6.5
2017-Sep-29 07:30N 25°57' W 079°43'4 7.0
2017-Sep-29 07:00N 25°54' W 079°41'3 6.7
2017-Sep-29 06:29N 25°52' W 079°38'5 0.2
2017-Sep-28 06:49N 25°49' W 079°42'2 8.0
2017-Sep-28 06:30N 25°51' W 079°44'4 8.3
2017-Sep-28 06:00N 25°53' W 079°48'4 8.1
2017-Sep-28 05:30N 25°56' W 079°51'4 8.2
2017-Sep-28 05:00N 25°59' W 079°55'4 8.9
2017-Sep-28 04:30N 26°01' W 079°59'5 9.4
2017-Sep-28 04:00N 26°04' W 080°03'3 6.8
2017-Sep-28 03:30N 26°05' W 080°07'2 3.4
2017-Sep-28 03:01N 26°04' W 080°08'0 0.1
2017-Sep-28 02:30N 26°04' W 080°08'0 0.0
2017-Sep-28 02:00N 26°04' W 080°08'0 0.0
2017-Sep-28 01:30N 26°04' W 080°08'0 0.0
2017-Sep-28 01:00N 26°04' W 080°08'0 0.0
2017-Sep-28 00:30N 26°04' W 080°08'  
Track history (hours):
 
Tides and Currents Weather Stations Pressure Air Temp Water Temp Dewpoint Dewpoint Depression Visibility Wind Speed Wind Dir Waves Ship Positions

Bahamas Express

Last reported at 2017-Oct-08 00:17 UTC. Time now 2017-Oct-20 19:38 UTC.
Position N 26°04' W 079°40'.
Warning: this ship's position is 12 days out of date.

Length 52 m; draft 2 m.

Type: Cargo ship. MMSI: 371923000.

Date/timePositionNaut miles runAvg speedWind from/ knotsBaromVisibWave heightAir tempDewpointWater temp
2017-Oct-08 00:17N 26°04' W 079°40'3 9.6
2017-Oct-08 00:00N 26°04' W 079°43'5 9.3
2017-Oct-07 23:30N 26°03' W 079°48'4 8.9
2017-Oct-07 23:00N 26°04' W 079°53'4 8.9
2017-Oct-07 22:30N 26°04' W 079°58'5 9.0
2017-Oct-07 22:00N 26°05' W 080°03'4 7.1
2017-Oct-07 21:30N 26°05' W 080°07'2 3.7
2017-Oct-07 21:00N 26°04' W 080°08'0 0.0
2017-Oct-07 20:30N 26°04' W 080°08'0 0.0
2017-Oct-07 20:00N 26°04' W 080°08'0 0.0
2017-Oct-07 19:30N 26°04' W 080°08'0 0.0
2017-Oct-07 18:57N 26°04' W 080°08'0 0.0
2017-Oct-07 18:25N 26°04' W 080°08'0 0.0
2017-Oct-07 17:59N 26°04' W 080°08'0 0.0
2017-Oct-07 17:28N 26°04' W 080°08'0 0.0
2017-Oct-07 16:59N 26°04' W 080°08'0 0.0
2017-Oct-07 16:30N 26°04' W 080°08'0 0.0
2017-Oct-07 15:53N 26°04' W 080°08'0 0.0
2017-Oct-07 15:30N 26°04' W 080°08'0 0.0
2017-Oct-07 15:00N 26°04' W 080°08'0 0.0
2017-Oct-07 14:30N 26°04' W 080°08'0 0.0
2017-Oct-07 14:00N 26°04' W 080°08'0 0.0
2017-Oct-07 13:30N 26°04' W 080°08'0 0.0
2017-Oct-07 13:00N 26°04' W 080°08'0 0.0
2017-Oct-07 12:30N 26°04' W 080°08'0 0.0
2017-Oct-07 12:00N 26°04' W 080°08'0 0.0
2017-Oct-07 11:30N 26°04' W 080°08'0 0.0
2017-Oct-07 11:00N 26°04' W 080°08'0 0.0
2017-Oct-07 10:30N 26°04' W 080°08'0 0.0
2017-Oct-07 10:00N 26°04' W 080°08'2 4.5
2017-Oct-07 09:30N 26°06' W 080°07'3 6.4
2017-Oct-07 09:00N 26°04' W 080°03'3 6.6
2017-Oct-07 08:30N 26°02' W 080°00'4 7.5
2017-Oct-07 08:00N 26°00' W 079°57'4 7.0
2017-Oct-07 07:30N 25°59' W 079°53'3 6.9
2017-Oct-07 07:00N 25°57' W 079°50'4 7.2
2017-Oct-07 06:30N 25°55' W 079°47'4 7.5
2017-Oct-07 06:00N 25°53' W 079°43'4 7.8
2017-Oct-07 05:29N 25°52' W 079°39'4 0.2
2017-Oct-06 07:16N 25°51' W 079°44'2 7.2
2017-Oct-06 06:59N 25°52' W 079°45'4 7.6
2017-Oct-06 06:30N 25°54' W 079°49'4 7.9
2017-Oct-06 06:00N 25°56' W 079°52'4 8.1
2017-Oct-06 05:30N 25°59' W 079°56'4 8.3
2017-Oct-06 05:00N 26°01' W 079°60'4 8.8
2017-Oct-06 04:30N 26°04' W 080°03'3 6.5
2017-Oct-06 04:00N 26°05' W 080°07'2 3.1
2017-Oct-06 03:30N 26°04' W 080°08'0 0.0
2017-Oct-06 03:00N 26°04' W 080°08'0 0.0
2017-Oct-06 02:30N 26°04' W 080°08'0 0.0
2017-Oct-06 02:00N 26°04' W 080°08'0 0.0
2017-Oct-06 01:30N 26°04' W 080°08'0 0.1
2017-Oct-06 01:00N 26°04' W 080°08'0 0.0
2017-Oct-06 00:30N 26°04' W 080°08'0 0.0
2017-Oct-06 00:00N 26°04' W 080°08'0 0.0
2017-Oct-05 23:30N 26°04' W 080°08'0 0.0
2017-Oct-05 23:00N 26°04' W 080°08'0 0.0
2017-Oct-05 22:30N 26°04' W 080°08'0 0.0
2017-Oct-05 22:00N 26°04' W 080°08'0 0.0
2017-Oct-05 21:30N 26°04' W 080°08'0 0.0
2017-Oct-05 21:00N 26°04' W 080°08'0 0.0
2017-Oct-05 20:30N 26°04' W 080°08'0 0.0
2017-Oct-05 20:00N 26°04' W 080°08'0 0.0
2017-Oct-05 19:30N 26°04' W 080°08'0 0.0
2017-Oct-05 19:00N 26°04' W 080°08'0 0.0
2017-Oct-05 18:30N 26°04' W 080°08'0 0.0
2017-Oct-05 18:00N 26°04' W 080°08'0 0.0
2017-Oct-05 17:30N 26°04' W 080°08'0 0.0
2017-Oct-05 17:00N 26°04' W 080°08'0 0.0
2017-Oct-05 15:30N 26°04' W 080°08'0 0.0
2017-Oct-05 15:00N 26°04' W 080°08'0 0.0
2017-Oct-05 14:30N 26°04' W 080°08'0 0.0
2017-Oct-05 14:00N 26°04' W 080°08'0 0.0
2017-Oct-05 13:30N 26°04' W 080°08'0 0.0
2017-Oct-05 13:00N 26°04' W 080°08'0 0.0
2017-Oct-05 12:30N 26°04' W 080°08'0 0.0
2017-Oct-05 12:00N 26°04' W 080°08'0 0.0
2017-Oct-05 11:30N 26°04' W 080°08'0 0.0
2017-Oct-05 11:00N 26°04' W 080°08'0 0.0
2017-Oct-05 10:30N 26°04' W 080°08'0 0.0
2017-Oct-05 10:00N 26°04' W 080°08'0 0.0
2017-Oct-05 09:30N 26°04' W 080°08'0 0.0
2017-Oct-05 09:00N 26°04' W 080°08'0 0.0
2017-Oct-05 08:30N 26°04' W 080°08'0 0.0
2017-Oct-05 08:00N 26°04' W 080°08'0 0.0
2017-Oct-05 07:30N 26°04' W 080°08'0 0.0
2017-Oct-05 07:00N 26°04' W 080°08'0 0.0
2017-Oct-05 06:30N 26°04' W 080°08'0 0.0
2017-Oct-05 06:00N 26°04' W 080°08'0 0.0
2017-Oct-05 05:30N 26°04' W 080°08'0 0.0
2017-Oct-05 05:00N 26°04' W 080°08'0 0.0
2017-Oct-05 04:30N 26°04' W 080°08'0 0.0
2017-Oct-05 04:00N 26°04' W 080°08'0 0.0
2017-Oct-05 03:30N 26°04' W 080°08'0 0.0
2017-Oct-05 03:00N 26°04' W 080°08'0 0.0
2017-Oct-05 02:30N 26°04' W 080°08'0 0.0
2017-Oct-05 02:00N 26°04' W 080°08'0 0.0
2017-Oct-05 01:30N 26°04' W 080°08'0 0.0
2017-Oct-05 01:00N 26°04' W 080°08'0 0.0
2017-Oct-05 00:30N 26°04' W 080°08'0 0.0
2017-Oct-05 00:00N 26°04' W 080°08'0 0.0
2017-Oct-04 23:30N 26°04' W 080°08'0 0.0
2017-Oct-04 23:00N 26°04' W 080°08'0 0.0
2017-Oct-04 22:30N 26°04' W 080°08'0 0.0
2017-Oct-04 22:00N 26°04' W 080°08'0 0.0
2017-Oct-04 21:30N 26°04' W 080°08'0 0.0
2017-Oct-04 21:00N 26°04' W 080°08'0 0.0
2017-Oct-04 20:30N 26°04' W 080°08'0 0.0
2017-Oct-04 20:00N 26°04' W 080°08'0 0.0
2017-Oct-04 19:30N 26°04' W 080°08'0 0.0
2017-Oct-04 19:00N 26°04' W 080°08'0 0.0
2017-Oct-04 18:30N 26°04' W 080°08'0 0.0
2017-Oct-04 18:00N 26°04' W 080°08'0 0.0
2017-Oct-04 17:30N 26°04' W 080°08'0 0.0
2017-Oct-04 17:00N 26°04' W 080°08'0 0.0
2017-Oct-04 16:30N 26°04' W 080°08'0 0.0
2017-Oct-04 16:00N 26°04' W 080°08'0 0.0
2017-Oct-04 15:30N 26°04' W 080°08'0 0.0
2017-Oct-04 15:00N 26°04' W 080°08'0 0.0
2017-Oct-04 14:30N 26°04' W 080°08'0 0.0
2017-Oct-04 14:00N 26°04' W 080°08'0 0.0
2017-Oct-04 13:30N 26°04' W 080°08'0 0.0
2017-Oct-04 13:00N 26°04' W 080°08'0 0.0
2017-Oct-04 12:30N 26°04' W 080°08'0 0.0
2017-Oct-04 12:00N 26°04' W 080°08'0 0.0
2017-Oct-04 11:30N 26°04' W 080°08'0 0.0
2017-Oct-04 11:00N 26°04' W 080°08'0 0.0
2017-Oct-04 10:30N 26°04' W 080°08'0 0.0
2017-Oct-04 10:00N 26°04' W 080°08'0 0.0
2017-Oct-04 09:30N 26°04' W 080°08'0 0.0
2017-Oct-04 09:00N 26°04' W 080°08'0 0.0
2017-Oct-04 08:30N 26°04' W 080°08'0 0.0
2017-Oct-04 08:00N 26°04' W 080°08'0 0.0
2017-Oct-04 07:29N 26°04' W 080°08'0 0.0
2017-Oct-04 07:00N 26°04' W 080°08'0 0.0
2017-Oct-04 06:30N 26°04' W 080°08'0 0.0
2017-Oct-04 06:00N 26°04' W 080°08'0 0.0
2017-Oct-04 05:30N 26°04' W 080°08'0 0.0
2017-Oct-04 05:00N 26°04' W 080°08'0 0.0
2017-Oct-04 04:30N 26°04' W 080°08'0 0.0
2017-Oct-04 04:00N 26°04' W 080°08'0 0.0
2017-Oct-04 03:30N 26°04' W 080°08'0 0.0
2017-Oct-04 03:00N 26°04' W 080°08'0 0.0
2017-Oct-04 02:30N 26°04' W 080°08'0 0.0
2017-Oct-04 02:00N 26°04' W 080°08'0 0.0
2017-Oct-04 01:30N 26°04' W 080°08'0 0.0
2017-Oct-04 01:00N 26°04' W 080°08'0 0.0
2017-Oct-04 00:30N 26°04' W 080°08'0 0.0
2017-Oct-04 00:00N 26°04' W 080°08'0 0.0
2017-Oct-03 23:30N 26°04' W 080°08'0 0.0
2017-Oct-03 23:00N 26°04' W 080°08'0 0.0
2017-Oct-03 22:30N 26°04' W 080°08'0 0.0
2017-Oct-03 22:00N 26°04' W 080°08'0 0.1
2017-Oct-03 21:30N 26°04' W 080°08'0 0.0
2017-Oct-03 21:00N 26°04' W 080°08'0 0.0
2017-Oct-03 20:30N 26°04' W 080°08'1 1.7
2017-Oct-03 20:00N 26°04' W 080°07'2 3.1
2017-Oct-03 19:30N 26°04' W 080°05'4 7.9
2017-Oct-03 19:00N 26°01' W 080°02'5 9.1
2017-Oct-03 18:31N 25°60' W 079°58'5 9.1
2017-Oct-03 18:00N 25°59' W 079°52'4 8.8
2017-Oct-03 17:30N 25°58' W 079°48'5 9.0
2017-Oct-03 16:59N 25°57' W 079°43'  
2017-Sep-30 02:00N 26°05' W 080°07'2 3.6
2017-Sep-30 01:30N 26°04' W 080°08'0 0.2
2017-Sep-30 01:00N 26°04' W 080°08'0 0.0
2017-Sep-30 00:30N 26°04' W 080°08'0 0.0
2017-Sep-30 00:00N 26°04' W 080°08'0 0.0
2017-Sep-29 23:30N 26°04' W 080°08'0 0.0
2017-Sep-29 23:00N 26°04' W 080°08'0 0.0
2017-Sep-29 22:30N 26°04' W 080°08'0 0.0
2017-Sep-29 22:00N 26°04' W 080°08'0 0.0
2017-Sep-29 21:30N 26°04' W 080°08'0 0.0
2017-Sep-29 21:00N 26°04' W 080°08'0 0.0
2017-Sep-29 20:30N 26°04' W 080°08'0 0.0
2017-Sep-29 20:00N 26°04' W 080°08'0 0.0
2017-Sep-29 19:30N 26°04' W 080°08'0 0.0
2017-Sep-29 19:00N 26°04' W 080°08'0 0.0
2017-Sep-29 18:30N 26°04' W 080°08'0 0.0
2017-Sep-29 17:00N 26°04' W 080°08'0 0.0
2017-Sep-29 16:30N 26°04' W 080°08'0 0.0
2017-Sep-29 16:00N 26°04' W 080°08'0 0.0
2017-Sep-29 15:30N 26°04' W 080°08'0 0.0
2017-Sep-29 15:00N 26°04' W 080°08'0 0.0
2017-Sep-29 14:28N 26°04' W 080°08'0 0.0
2017-Sep-29 14:00N 26°04' W 080°08'0 0.0
2017-Sep-29 13:30N 26°04' W 080°08'0 0.0
2017-Sep-29 13:00N 26°04' W 080°08'0 0.0
2017-Sep-29 12:30N 26°04' W 080°08'0 0.0
2017-Sep-29 12:00N 26°04' W 080°08'2 3.8
2017-Sep-29 11:30N 26°05' W 080°07'0 0.8
2017-Sep-29 11:00N 26°06' W 080°07'3 5.6
2017-Sep-29 10:31N 26°05' W 080°04'3 5.8
2017-Sep-29 10:00N 26°04' W 080°01'4 7.1
2017-Sep-29 09:30N 26°02' W 079°57'3 6.5
2017-Sep-29 09:00N 26°00' W 079°54'3 6.9
2017-Sep-29 08:30N 25°59' W 079°50'3 6.8
2017-Sep-29 08:00N 25°58' W 079°47'3 6.5
2017-Sep-29 07:30N 25°57' W 079°43'4 7.0
2017-Sep-29 07:00N 25°54' W 079°41'3 6.7
2017-Sep-29 06:29N 25°52' W 079°38'5 0.2
2017-Sep-28 06:49N 25°49' W 079°42'2 8.0
2017-Sep-28 06:30N 25°51' W 079°44'4 8.3
2017-Sep-28 06:00N 25°53' W 079°48'4 8.1
2017-Sep-28 05:30N 25°56' W 079°51'4 8.2
2017-Sep-28 05:00N 25°59' W 079°55'4 8.9
2017-Sep-28 04:30N 26°01' W 079°59'5 9.4
2017-Sep-28 04:00N 26°04' W 080°03'3 6.8
2017-Sep-28 03:30N 26°05' W 080°07'2 3.4
2017-Sep-28 03:01N 26°04' W 080°08'0 0.1
2017-Sep-28 02:30N 26°04' W 080°08'0 0.0
2017-Sep-28 02:00N 26°04' W 080°08'0 0.0
2017-Sep-28 01:30N 26°04' W 080°08'0 0.0
2017-Sep-28 01:00N 26°04' W 080°08'0 0.0
2017-Sep-28 00:30N 26°04' W 080°08'  

Dump ship's entire track history